sensor_id;sensor_type;location;lat;lon;timestamp;pressure;altitude;pressure_sealevel;temperature;humidity
79250;BME280;68679;51.030;7.584;2023-06-14T00:01:09;98736.91;;;17.13;42.19
79250;BME280;68679;51.030;7.584;2023-06-14T00:03:35;98740.38;;;17.05;42.55
79250;BME280;68679;51.030;7.584;2023-06-14T00:06:00;98739.13;;;17.02;42.62
79250;BME280;68679;51.030;7.584;2023-06-14T00:08:25;98744.78;;;16.92;42.96
79250;BME280;68679;51.030;7.584;2023-06-14T00:10:51;98739.50;;;16.92;42.50
79250;BME280;68679;51.030;7.584;2023-06-14T00:13:16;98745.56;;;16.93;42.43
79250;BME280;68679;51.030;7.584;2023-06-14T00:15:41;98748.41;;;16.87;42.82
79250;BME280;68679;51.030;7.584;2023-06-14T00:18:08;98748.59;;;16.82;42.82
79250;BME280;68679;51.030;7.584;2023-06-14T00:20:34;98752.47;;;16.85;43.11
79250;BME280;68679;51.030;7.584;2023-06-14T00:23:00;98761.06;;;16.82;42.71
79250;BME280;68679;51.030;7.584;2023-06-14T00:25:26;98755.63;;;16.78;42.50
79250;BME280;68679;51.030;7.584;2023-06-14T00:27:51;98756.25;;;16.75;42.68
79250;BME280;68679;51.030;7.584;2023-06-14T00:30:17;98754.25;;;16.72;42.47
79250;BME280;68679;51.030;7.584;2023-06-14T00:32:43;98754.09;;;16.69;42.68
79250;BME280;68679;51.030;7.584;2023-06-14T00:35:09;98758.00;;;16.62;42.76
79250;BME280;68679;51.030;7.584;2023-06-14T00:37:35;98766.59;;;16.51;43.29
79250;BME280;68679;51.030;7.584;2023-06-14T00:40:00;98760.53;;;16.50;43.05
79250;BME280;68679;51.030;7.584;2023-06-14T00:42:26;98763.22;;;16.33;43.77
79250;BME280;68679;51.030;7.584;2023-06-14T00:44:52;98767.41;;;16.25;44.40
79250;BME280;68679;51.030;7.584;2023-06-14T00:47:17;98767.41;;;16.34;43.81
79250;BME280;68679;51.030;7.584;2023-06-14T00:49:45;98766.31;;;16.35;43.58
79250;BME280;68679;51.030;7.584;2023-06-14T00:52:10;98773.97;;;16.28;43.89
79250;BME280;68679;51.030;7.584;2023-06-14T00:54:37;98768.06;;;16.22;44.21
79250;BME280;68679;51.030;7.584;2023-06-14T00:57:03;98764.81;;;16.17;44.03
79250;BME280;68679;51.030;7.584;2023-06-14T00:59:28;98767.78;;;16.15;44.27
79250;BME280;68679;51.030;7.584;2023-06-14T01:01:54;98776.81;;;16.14;43.89
79250;BME280;68679;51.030;7.584;2023-06-14T01:04:19;98770.56;;;16.10;44.38
79250;BME280;68679;51.030;7.584;2023-06-14T01:07:09;98773.06;;;15.98;44.77
79250;BME280;68679;51.030;7.584;2023-06-14T01:12:39;98774.66;;;15.90;45.07
79250;BME280;68679;51.030;7.584;2023-06-14T01:15:10;98776.97;;;15.92;44.94
79250;BME280;68679;51.030;7.584;2023-06-14T01:17:36;98779.44;;;15.88;44.89
79250;BME280;68679;51.030;7.584;2023-06-14T01:20:10;98772.78;;;15.73;45.39
79250;BME280;68679;51.030;7.584;2023-06-14T01:22:52;98779.47;;;15.79;44.75
79250;BME280;68679;51.030;7.584;2023-06-14T01:25:21;98783.34;;;15.82;44.81
79250;BME280;68679;51.030;7.584;2023-06-14T01:28:00;98774.63;;;15.81;44.32
79250;BME280;68679;51.030;7.584;2023-06-14T01:30:27;98779.78;;;15.78;44.33
79250;BME280;68679;51.030;7.584;2023-06-14T01:32:56;98775.25;;;15.78;44.05
79250;BME280;68679;51.030;7.584;2023-06-14T01:35:22;98778.84;;;15.74;44.35
79250;BME280;68679;51.030;7.584;2023-06-14T01:37:48;98773.22;;;15.75;43.98
79250;BME280;68679;51.030;7.584;2023-06-14T01:40:15;98772.59;;;15.70;43.97
79250;BME280;68679;51.030;7.584;2023-06-14T01:42:42;98778.97;;;15.69;43.95
79250;BME280;68679;51.030;7.584;2023-06-14T01:45:10;98772.56;;;15.61;43.93
79250;BME280;68679;51.030;7.584;2023-06-14T01:47:36;98777.38;;;15.59;43.86
79250;BME280;68679;51.030;7.584;2023-06-14T01:50:02;98771.63;;;15.57;43.83
79250;BME280;68679;51.030;7.584;2023-06-14T01:52:28;98775.19;;;15.52;43.96
79250;BME280;68679;51.030;7.584;2023-06-14T01:54:53;98776.59;;;15.50;43.91
79250;BME280;68679;51.030;7.584;2023-06-14T01:57:19;98775.84;;;15.49;43.57
79250;BME280;68679;51.030;7.584;2023-06-14T01:59:45;98773.34;;;15.44;43.68
79250;BME280;68679;51.030;7.584;2023-06-14T02:02:14;98783.13;;;15.44;43.55
79250;BME280;68679;51.030;7.584;2023-06-14T02:04:39;98777.66;;;15.40;43.73
79250;BME280;68679;51.030;7.584;2023-06-14T02:07:05;98772.25;;;15.37;43.71
79250;BME280;68679;51.030;7.584;2023-06-14T02:09:30;98766.47;;;15.35;43.61
79250;BME280;68679;51.030;7.584;2023-06-14T02:11:55;98768.97;;;15.31;43.59
79250;BME280;68679;51.030;7.584;2023-06-14T02:14:21;98768.00;;;15.27;43.85
79250;BME280;68679;51.030;7.584;2023-06-14T02:16:46;98762.72;;;15.27;43.64
79250;BME280;68679;51.030;7.584;2023-06-14T02:19:17;98766.59;;;15.21;44.11
79250;BME280;68679;51.030;7.584;2023-06-14T02:21:43;98764.59;;;15.18;44.16
79250;BME280;68679;51.030;7.584;2023-06-14T02:24:09;98762.88;;;15.13;43.88
79250;BME280;68679;51.030;7.584;2023-06-14T02:26:35;98763.03;;;15.17;43.78
79250;BME280;68679;51.030;7.584;2023-06-14T02:29:00;98770.47;;;15.15;44.10
79250;BME280;68679;51.030;7.584;2023-06-14T02:31:26;98771.09;;;15.12;43.70
79250;BME280;68679;51.030;7.584;2023-06-14T02:33:51;98771.25;;;15.07;43.67
79250;BME280;68679;51.030;7.584;2023-06-14T02:36:17;98771.84;;;15.03;44.11
79250;BME280;68679;51.030;7.584;2023-06-14T02:38:42;98766.56;;;15.03;44.01
79250;BME280;68679;51.030;7.584;2023-06-14T02:41:07;98766.88;;;15.02;43.64
79250;BME280;68679;51.030;7.584;2023-06-14T02:43:32;98760.16;;;14.96;43.98
79250;BME280;68679;51.030;7.584;2023-06-14T02:45:58;98764.69;;;14.95;43.87
79250;BME280;68679;51.030;7.584;2023-06-14T02:48:23;98769.31;;;14.90;44.11
79250;BME280;68679;51.030;7.584;2023-06-14T02:50:48;98773.19;;;14.92;44.03
79250;BME280;68679;51.030;7.584;2023-06-14T02:53:14;98764.03;;;14.90;44.20
79250;BME280;68679;51.030;7.584;2023-06-14T02:55:39;98769.94;;;14.87;44.31
79250;BME280;68679;51.030;7.584;2023-06-14T02:58:05;98768.22;;;14.82;44.09
79250;BME280;68679;51.030;7.584;2023-06-14T03:00:31;98773.78;;;14.81;44.18
79250;BME280;68679;51.030;7.584;2023-06-14T03:02:56;98778.59;;;14.79;44.47
79250;BME280;68679;51.030;7.584;2023-06-14T03:05:21;98772.38;;;14.74;44.65
79250;BME280;68679;51.030;7.584;2023-06-14T03:07:48;98777.78;;;14.69;44.78
79250;BME280;68679;51.030;7.584;2023-06-14T03:10:13;98782.56;;;14.67;44.87
79250;BME280;68679;51.030;7.584;2023-06-14T03:12:39;98782.88;;;14.66;44.82
79250;BME280;68679;51.030;7.584;2023-06-14T03:15:05;98785.06;;;14.64;44.69
79250;BME280;68679;51.030;7.584;2023-06-14T03:17:30;98778.50;;;14.61;44.67
79250;BME280;68679;51.030;7.584;2023-06-14T03:19:59;98784.88;;;14.60;44.70
79250;BME280;68679;51.030;7.584;2023-06-14T03:22:25;98786.91;;;14.63;44.61
79250;BME280;68679;51.030;7.584;2023-06-14T03:24:51;98797.13;;;14.56;44.64
79250;BME280;68679;51.030;7.584;2023-06-14T03:27:16;98782.97;;;14.52;44.73
79250;BME280;68679;51.030;7.584;2023-06-14T03:29:42;98785.59;;;14.52;44.63
79250;BME280;68679;51.030;7.584;2023-06-14T03:32:07;98795.28;;;14.43;44.88
79250;BME280;68679;51.030;7.584;2023-06-14T03:34:33;98789.63;;;14.49;44.66
79250;BME280;68679;51.030;7.584;2023-06-14T03:36:58;98795.78;;;14.45;45.07
79250;BME280;68679;51.030;7.584;2023-06-14T03:39:23;98796.69;;;14.40;45.30
79250;BME280;68679;51.030;7.584;2023-06-14T03:41:49;98804.28;;;14.42;45.02
79250;BME280;68679;51.030;7.584;2023-06-14T03:44:16;98799.78;;;14.42;45.28
79250;BME280;68679;51.030;7.584;2023-06-14T03:46:42;98808.31;;;14.39;45.36
79250;BME280;68679;51.030;7.584;2023-06-14T03:49:08;98807.66;;;14.34;45.41
79250;BME280;68679;51.030;7.584;2023-06-14T03:51:33;98811.09;;;14.34;45.32
79250;BME280;68679;51.030;7.584;2023-06-14T03:54:00;98818.22;;;14.34;45.45
79250;BME280;68679;51.030;7.584;2023-06-14T03:56:25;98811.09;;;14.34;45.36
79250;BME280;68679;51.030;7.584;2023-06-14T03:58:52;98815.28;;;14.35;45.17
79250;BME280;68679;51.030;7.584;2023-06-14T04:01:17;98825.03;;;14.35;45.15
79250;BME280;68679;51.030;7.584;2023-06-14T04:03:42;98822.88;;;14.37;45.03
79250;BME280;68679;51.030;7.584;2023-06-14T04:06:08;98826.44;;;14.32;45.35
79250;BME280;68679;51.030;7.584;2023-06-14T04:08:34;98830.63;;;14.33;45.28
79250;BME280;68679;51.030;7.584;2023-06-14T04:11:00;98829.06;;;14.32;45.60
79250;BME280;68679;51.030;7.584;2023-06-14T04:13:26;98831.41;;;14.34;45.68
79250;BME280;68679;51.030;7.584;2023-06-14T04:15:51;98837.75;;;14.33;45.71
79250;BME280;68679;51.030;7.584;2023-06-14T04:18:16;98841.94;;;14.34;46.04
79250;BME280;68679;51.030;7.584;2023-06-14T04:20:43;98845.69;;;14.33;45.87
79250;BME280;68679;51.030;7.584;2023-06-14T04:23:16;98850.34;;;14.36;45.52
79250;BME280;68679;51.030;7.584;2023-06-14T04:25:43;98847.22;;;14.34;45.57
79250;BME280;68679;51.030;7.584;2023-06-14T04:28:11;98850.34;;;14.36;45.34
79250;BME280;68679;51.030;7.584;2023-06-14T04:30:37;98852.66;;;14.37;45.33
79250;BME280;68679;51.030;7.584;2023-06-14T04:33:04;98847.69;;;14.36;45.33
79250;BME280;68679;51.030;7.584;2023-06-14T04:35:31;98854.53;;;14.37;45.06
79250;BME280;68679;51.030;7.584;2023-06-14T04:37:57;98855.81;;;14.39;45.13
79250;BME280;68679;51.030;7.584;2023-06-14T04:40:23;98859.22;;;14.40;45.14
79250;BME280;68679;51.030;7.584;2023-06-14T04:42:48;98852.81;;;14.32;45.64
79250;BME280;68679;51.030;7.584;2023-06-14T04:45:16;98860.13;;;14.35;45.63
79250;BME280;68679;51.030;7.584;2023-06-14T04:47:41;98869.31;;;14.38;45.55
79250;BME280;68679;51.030;7.584;2023-06-14T04:50:07;98855.19;;;14.42;45.45
79250;BME280;68679;51.030;7.584;2023-06-14T04:52:32;98858.91;;;14.41;45.27
79250;BME280;68679;51.030;7.584;2023-06-14T04:54:58;98861.25;;;14.43;45.64
79250;BME280;68679;51.030;7.584;2023-06-14T04:57:24;98864.38;;;14.45;45.62
79250;BME280;68679;51.030;7.584;2023-06-14T04:59:50;98867.97;;;14.27;47.65
79250;BME280;68679;51.030;7.584;2023-06-14T05:02:20;98869.41;;;14.33;46.58
79250;BME280;68679;51.030;7.584;2023-06-14T05:04:45;98877.31;;;14.33;47.56
79250;BME280;68679;51.030;7.584;2023-06-14T05:07:12;98875.81;;;14.40;46.81
79250;BME280;68679;51.030;7.584;2023-06-14T05:09:39;98878.84;;;14.47;46.50
79250;BME280;68679;51.030;7.584;2023-06-14T05:12:05;98876.69;;;14.49;46.79
79250;BME280;68679;51.030;7.584;2023-06-14T05:14:32;98874.66;;;14.46;47.30
79250;BME280;68679;51.030;7.584;2023-06-14T05:16:58;98875.53;;;14.42;47.38
79250;BME280;68679;51.030;7.584;2023-06-14T05:19:23;98885.53;;;14.31;48.17
79250;BME280;68679;51.030;7.584;2023-06-14T05:21:48;98893.63;;;14.35;48.38
79250;BME280;68679;51.030;7.584;2023-06-14T05:24:14;98883.34;;;14.47;48.88
79250;BME280;68679;51.030;7.584;2023-06-14T05:26:40;98884.47;;;14.55;47.90
79250;BME280;68679;51.030;7.584;2023-06-14T05:29:05;98878.00;;;14.61;47.86
79250;BME280;68679;51.030;7.584;2023-06-14T05:31:31;98881.25;;;14.58;48.83
79250;BME280;68679;51.030;7.584;2023-06-14T05:33:56;98882.69;;;14.64;48.09
79250;BME280;68679;51.030;7.584;2023-06-14T05:36:22;98881.72;;;14.60;49.44
79250;BME280;68679;51.030;7.584;2023-06-14T05:38:47;98885.56;;;14.76;47.88
79250;BME280;68679;51.030;7.584;2023-06-14T05:41:13;98889.44;;;14.79;48.65
79250;BME280;68679;51.030;7.584;2023-06-14T05:43:38;98889.75;;;14.77;49.03
79250;BME280;68679;51.030;7.584;2023-06-14T05:46:03;98888.09;;;14.81;49.24
79250;BME280;68679;51.030;7.584;2023-06-14T05:48:30;98890.56;;;14.86;49.22
79250;BME280;68679;51.030;7.584;2023-06-14T05:50:55;98897.13;;;14.89;49.61
79250;BME280;68679;51.030;7.584;2023-06-14T05:53:21;98901.19;;;14.95;49.33
79250;BME280;68679;51.030;7.584;2023-06-14T05:55:46;98896.56;;;15.00;48.84
79250;BME280;68679;51.030;7.584;2023-06-14T05:58:11;98905.31;;;15.10;48.65
79250;BME280;68679;51.030;7.584;2023-06-14T06:00:38;98902.41;;;15.20;48.08
79250;BME280;68679;51.030;7.584;2023-06-14T06:03:04;98902.28;;;15.25;49.15
79250;BME280;68679;51.030;7.584;2023-06-14T06:05:30;98897.31;;;15.32;48.91
79250;BME280;68679;51.030;7.584;2023-06-14T06:07:55;98900.63;;;15.46;48.17
79250;BME280;68679;51.030;7.584;2023-06-14T06:10:21;98905.97;;;15.55;48.98
79250;BME280;68679;51.030;7.584;2023-06-14T06:12:46;98905.50;;;15.62;47.88
79250;BME280;68679;51.030;7.584;2023-06-14T06:15:13;98909.28;;;15.69;47.81
79250;BME280;68679;51.030;7.584;2023-06-14T06:17:39;98910.09;;;15.78;47.68
79250;BME280;68679;51.030;7.584;2023-06-14T06:20:06;98910.41;;;15.94;47.35
79250;BME280;68679;51.030;7.584;2023-06-14T06:22:33;98902.06;;;16.09;45.92
79250;BME280;68679;51.030;7.584;2023-06-14T06:24:59;98914.81;;;16.25;45.05
79250;BME280;68679;51.030;7.584;2023-06-14T06:27:24;98913.91;;;16.38;44.41
79250;BME280;68679;51.030;7.584;2023-06-14T06:29:49;98911.41;;;16.50;44.24
79250;BME280;68679;51.030;7.584;2023-06-14T06:32:15;98914.50;;;16.61;43.71
79250;BME280;68679;51.030;7.584;2023-06-14T06:34:40;98912.13;;;16.68;43.21
79250;BME280;68679;51.030;7.584;2023-06-14T06:37:06;98919.66;;;16.75;43.07
79250;BME280;68679;51.030;7.584;2023-06-14T06:39:32;98930.56;;;16.82;43.05
79250;BME280;68679;51.030;7.584;2023-06-14T06:41:57;98928.50;;;16.87;43.12
79250;BME280;68679;51.030;7.584;2023-06-14T06:44:23;98929.91;;;16.94;42.92
79250;BME280;68679;51.030;7.584;2023-06-14T06:46:48;98928.66;;;17.00;42.72
79250;BME280;68679;51.030;7.584;2023-06-14T06:49:13;98936.44;;;17.05;42.74
79250;BME280;68679;51.030;7.584;2023-06-14T06:51:41;98925.63;;;17.10;42.38
79250;BME280;68679;51.030;7.584;2023-06-14T06:54:07;98936.56;;;17.17;42.77
79250;BME280;68679;51.030;7.584;2023-06-14T06:56:33;98934.81;;;17.21;42.35
79250;BME280;68679;51.030;7.584;2023-06-14T06:58:58;98929.34;;;17.26;42.52
79250;BME280;68679;51.030;7.584;2023-06-14T07:01:24;98932.28;;;17.33;42.71
79250;BME280;68679;51.030;7.584;2023-06-14T07:03:49;98932.53;;;17.40;42.02
79250;BME280;68679;51.030;7.584;2023-06-14T07:06:15;98934.41;;;17.49;42.44
79250;BME280;68679;51.030;7.584;2023-06-14T07:08:43;98935.91;;;17.58;42.03
79250;BME280;68679;51.030;7.584;2023-06-14T07:11:08;98937.09;;;17.69;41.81
79250;BME280;68679;51.030;7.584;2023-06-14T07:13:34;98933.69;;;17.78;41.42
79250;BME280;68679;51.030;7.584;2023-06-14T07:16:00;98935.16;;;17.87;41.55
79250;BME280;68679;51.030;7.584;2023-06-14T07:18:29;98927.16;;;17.96;41.39
79250;BME280;68679;51.030;7.584;2023-06-14T07:20:54;98934.72;;;18.06;41.14
79250;BME280;68679;51.030;7.584;2023-06-14T07:23:21;98937.00;;;18.16;40.92
79250;BME280;68679;51.030;7.584;2023-06-14T07:25:46;98938.03;;;18.24;40.92
79250;BME280;68679;51.030;7.584;2023-06-14T07:28:11;98935.34;;;18.33;40.58
79250;BME280;68679;51.030;7.584;2023-06-14T07:30:36;98934.03;;;18.39;40.64
79250;BME280;68679;51.030;7.584;2023-06-14T07:33:02;98933.78;;;18.53;40.31
79250;BME280;68679;51.030;7.584;2023-06-14T07:35:27;98937.13;;;18.62;40.00
79250;BME280;68679;51.030;7.584;2023-06-14T07:37:52;98933.19;;;18.68;40.07
79250;BME280;68679;51.030;7.584;2023-06-14T07:40:18;98937.66;;;18.76;40.48
79250;BME280;68679;51.030;7.584;2023-06-14T07:42:43;98927.72;;;18.85;40.00
79250;BME280;68679;51.030;7.584;2023-06-14T07:45:09;98932.63;;;18.95;39.71
79250;BME280;68679;51.030;7.584;2023-06-14T07:47:34;98928.31;;;19.03;39.48
79250;BME280;68679;51.030;7.584;2023-06-14T07:50:00;98935.09;;;19.13;39.26
79250;BME280;68679;51.030;7.584;2023-06-14T07:52:25;98926.38;;;19.37;39.18
79250;BME280;68679;51.030;7.584;2023-06-14T07:54:50;98927.94;;;19.38;39.12
79250;BME280;68679;51.030;7.584;2023-06-14T07:57:16;98930.59;;;19.38;39.35
79250;BME280;68679;51.030;7.584;2023-06-14T07:59:41;98929.69;;;19.46;39.19
79250;BME280;68679;51.030;7.584;2023-06-14T08:02:06;98932.56;;;19.53;38.93
79250;BME280;68679;51.030;7.584;2023-06-14T08:04:32;98939.38;;;19.63;39.07
79250;BME280;68679;51.030;7.584;2023-06-14T08:06:57;98934.25;;;19.70;38.69
79250;BME280;68679;51.030;7.584;2023-06-14T08:09:22;98930.06;;;19.69;39.27
79250;BME280;68679;51.030;7.584;2023-06-14T08:11:49;98924.19;;;19.75;39.21
79250;BME280;68679;51.030;7.584;2023-06-14T08:14:14;98931.94;;;19.68;38.92
79250;BME280;68679;51.030;7.584;2023-06-14T08:16:40;98931.25;;;19.83;38.71
79250;BME280;68679;51.030;7.584;2023-06-14T08:19:05;98923.94;;;19.80;38.70
79250;BME280;68679;51.030;7.584;2023-06-14T08:21:30;98927.03;;;19.82;38.56
79250;BME280;68679;51.030;7.584;2023-06-14T08:23:58;98926.69;;;20.08;38.26
79250;BME280;68679;51.030;7.584;2023-06-14T08:26:24;98932.22;;;20.16;38.24
79250;BME280;68679;51.030;7.584;2023-06-14T08:28:53;98932.72;;;20.33;38.67
79250;BME280;68679;51.030;7.584;2023-06-14T08:31:20;98933.03;;;20.32;38.33
79250;BME280;68679;51.030;7.584;2023-06-14T08:33:45;98926.28;;;20.47;38.28
79250;BME280;68679;51.030;7.584;2023-06-14T08:36:10;98933.25;;;20.51;37.57
79250;BME280;68679;51.030;7.584;2023-06-14T08:38:37;98938.31;;;20.56;38.16
79250;BME280;68679;51.030;7.584;2023-06-14T08:41:04;98938.47;;;20.76;38.04
79250;BME280;68679;51.030;7.584;2023-06-14T08:43:30;98931.63;;;20.91;37.46
79250;BME280;68679;51.030;7.584;2023-06-14T08:45:58;98940.50;;;20.95;37.20
79250;BME280;68679;51.030;7.584;2023-06-14T08:48:26;98935.16;;;20.95;37.61
79250;BME280;68679;51.030;7.584;2023-06-14T08:50:56;98940.16;;;21.12;37.11
79250;BME280;68679;51.030;7.584;2023-06-14T08:53:28;98929.31;;;21.21;37.46
79250;BME280;68679;51.030;7.584;2023-06-14T08:55:58;98928.66;;;21.24;37.09
79250;BME280;68679;51.030;7.584;2023-06-14T08:58:25;98934.41;;;21.26;37.03
79250;BME280;68679;51.030;7.584;2023-06-14T09:00:50;98930.09;;;21.21;37.64
79250;BME280;68679;51.030;7.584;2023-06-14T09:03:17;98937.53;;;21.44;37.19
79250;BME280;68679;51.030;7.584;2023-06-14T09:05:45;98929.28;;;21.49;36.92
79250;BME280;68679;51.030;7.584;2023-06-14T09:08:11;98927.53;;;21.56;36.64
79250;BME280;68679;51.030;7.584;2023-06-14T09:10:36;98927.59;;;21.76;36.79
79250;BME280;68679;51.030;7.584;2023-06-14T09:13:03;98931.47;;;21.78;36.67
79250;BME280;68679;51.030;7.584;2023-06-14T09:15:30;98932.03;;;21.87;36.80
79250;BME280;68679;51.030;7.584;2023-06-14T09:17:55;98937.66;;;21.82;36.65
79250;BME280;68679;51.030;7.584;2023-06-14T09:20:23;98933.81;;;21.99;36.64
79250;BME280;68679;51.030;7.584;2023-06-14T09:22:49;98930.94;;;22.08;36.43
79250;BME280;68679;51.030;7.584;2023-06-14T09:25:14;98939.72;;;22.08;36.48
79250;BME280;68679;51.030;7.584;2023-06-14T09:27:41;98933.91;;;22.03;36.04
79250;BME280;68679;51.030;7.584;2023-06-14T09:30:09;98932.41;;;21.86;35.79
79250;BME280;68679;51.030;7.584;2023-06-14T09:32:38;98932.69;;;22.00;35.97
79250;BME280;68679;51.030;7.584;2023-06-14T09:35:07;98932.19;;;22.10;35.94
79250;BME280;68679;51.030;7.584;2023-06-14T09:37:33;98936.00;;;22.29;35.65
79250;BME280;68679;51.030;7.584;2023-06-14T09:39:59;98929.88;;;22.28;35.90
79250;BME280;68679;51.030;7.584;2023-06-14T09:42:25;98938.03;;;22.16;36.11
79250;BME280;68679;51.030;7.584;2023-06-14T09:47:17;98948.53;;;22.09;35.90
79250;BME280;68679;51.030;7.584;2023-06-14T09:49:43;98949.22;;;22.21;36.12
79250;BME280;68679;51.030;7.584;2023-06-14T09:52:11;98939.31;;;22.41;35.83
79250;BME280;68679;51.030;7.584;2023-06-14T09:54:40;98943.88;;;22.41;35.74
79250;BME280;68679;51.030;7.584;2023-06-14T09:57:07;98937.25;;;22.35;35.51
79250;BME280;68679;51.030;7.584;2023-06-14T09:59:34;98954.34;;;22.49;35.28
79250;BME280;68679;51.030;7.584;2023-06-14T10:02:06;98953.28;;;22.73;35.19
79250;BME280;68679;51.030;7.584;2023-06-14T10:04:33;98960.47;;;22.69;35.11
79250;BME280;68679;51.030;7.584;2023-06-14T10:06:59;98958.28;;;22.56;35.24
79250;BME280;68679;51.030;7.584;2023-06-14T10:09:26;98963.63;;;22.56;34.68
79250;BME280;68679;51.030;7.584;2023-06-14T10:11:51;98962.31;;;22.46;34.54
79250;BME280;68679;51.030;7.584;2023-06-14T10:14:17;98963.28;;;22.77;35.11
79250;BME280;68679;51.030;7.584;2023-06-14T10:16:57;98957.66;;;22.82;34.89
79250;BME280;68679;51.030;7.584;2023-06-14T10:19:31;98959.41;;;22.93;35.12
79250;BME280;68679;51.030;7.584;2023-06-14T10:22:04;98957.63;;;23.01;35.14
79250;BME280;68679;51.030;7.584;2023-06-14T10:24:33;98950.97;;;23.14;34.60
79250;BME280;68679;51.030;7.584;2023-06-14T10:27:00;98955.94;;;22.93;33.90
79250;BME280;68679;51.030;7.584;2023-06-14T10:29:26;98955.94;;;22.73;33.95
79250;BME280;68679;51.030;7.584;2023-06-14T10:31:58;98948.56;;;23.06;34.50
79250;BME280;68679;51.030;7.584;2023-06-14T10:34:28;98955.66;;;22.98;34.09
79250;BME280;68679;51.030;7.584;2023-06-14T10:37:07;98952.47;;;23.12;34.08
79250;BME280;68679;51.030;7.584;2023-06-14T10:39:38;98947.75;;;23.05;34.08
79250;BME280;68679;51.030;7.584;2023-06-14T10:42:04;98942.97;;;23.14;34.05
79250;BME280;68679;51.030;7.584;2023-06-14T10:44:50;98950.22;;;23.14;33.83
79250;BME280;68679;51.030;7.584;2023-06-14T10:47:22;98950.63;;;23.39;33.86
79250;BME280;68679;51.030;7.584;2023-06-14T10:49:50;98945.72;;;23.18;33.29
79250;BME280;68679;51.030;7.584;2023-06-14T10:52:19;98949.56;;;23.20;34.14
79250;BME280;68679;51.030;7.584;2023-06-14T10:55:05;98942.34;;;23.47;34.17
79250;BME280;68679;51.030;7.584;2023-06-14T10:57:32;98943.72;;;23.61;34.13
79250;BME280;68679;51.030;7.584;2023-06-14T10:59:59;98939.78;;;23.54;33.92
79250;BME280;68679;51.030;7.584;2023-06-14T11:05:49;98953.19;;;23.54;33.97
79250;BME280;68679;51.030;7.584;2023-06-14T11:11:15;98946.16;;;23.69;33.86
79250;BME280;68679;51.030;7.584;2023-06-14T11:13:44;98939.44;;;23.83;33.80
79250;BME280;68679;51.030;7.584;2023-06-14T11:16:17;98934.84;;;24.10;33.93
79250;BME280;68679;51.030;7.584;2023-06-14T11:18:44;98939.00;;;24.07;33.87
79250;BME280;68679;51.030;7.584;2023-06-14T11:21:10;98947.53;;;23.86;33.83
79250;BME280;68679;51.030;7.584;2023-06-14T11:23:36;98946.44;;;24.17;33.94
79250;BME280;68679;51.030;7.584;2023-06-14T11:26:01;98949.69;;;24.03;33.89
79250;BME280;68679;51.030;7.584;2023-06-14T11:28:40;98943.88;;;24.28;33.69
79250;BME280;68679;51.030;7.584;2023-06-14T11:31:06;98943.56;;;24.33;33.72
79250;BME280;68679;51.030;7.584;2023-06-14T11:33:32;98945.53;;;24.36;33.55
79250;BME280;68679;51.030;7.584;2023-06-14T11:35:57;98941.41;;;24.42;33.33
79250;BME280;68679;51.030;7.584;2023-06-14T11:38:23;98944.53;;;24.48;33.28
79250;BME280;68679;51.030;7.584;2023-06-14T11:40:48;98955.31;;;24.55;32.76
79250;BME280;68679;51.030;7.584;2023-06-14T11:43:13;98942.75;;;24.59;33.03
79250;BME280;68679;51.030;7.584;2023-06-14T11:45:39;98947.81;;;24.68;32.97
79250;BME280;68679;51.030;7.584;2023-06-14T11:48:06;98951.63;;;24.67;33.12
79250;BME280;68679;51.030;7.584;2023-06-14T11:50:31;98963.28;;;24.81;32.12
79250;BME280;68679;51.030;7.584;2023-06-14T11:52:59;98956.38;;;24.80;33.08
79250;BME280;68679;51.030;7.584;2023-06-14T11:55:31;98959.91;;;24.88;32.44
79250;BME280;68679;51.030;7.584;2023-06-14T11:57:57;98958.78;;;24.89;32.51
79250;BME280;68679;51.030;7.584;2023-06-14T12:00:25;98946.56;;;24.95;32.56
79250;BME280;68679;51.030;7.584;2023-06-14T12:02:53;98953.34;;;25.19;32.50
79250;BME280;68679;51.030;7.584;2023-06-14T12:05:21;98951.81;;;25.22;32.62
79250;BME280;68679;51.030;7.584;2023-06-14T12:07:47;98952.84;;;25.10;32.80
79250;BME280;68679;51.030;7.584;2023-06-14T12:10:13;98964.69;;;25.05;33.02
79250;BME280;68679;51.030;7.584;2023-06-14T12:12:40;98960.56;;;25.15;32.36
79250;BME280;68679;51.030;7.584;2023-06-14T12:15:07;98968.34;;;25.27;31.99
79250;BME280;68679;51.030;7.584;2023-06-14T12:17:36;98973.81;;;25.41;32.23
79250;BME280;68679;51.030;7.584;2023-06-14T12:20:06;98964.03;;;25.63;32.03
79250;BME280;68679;51.030;7.584;2023-06-14T12:22:36;98958.69;;;25.71;31.75
79250;BME280;68679;51.030;7.584;2023-06-14T12:25:03;98961.72;;;25.62;32.24
79250;BME280;68679;51.030;7.584;2023-06-14T12:27:28;98959.81;;;25.62;31.62
79250;BME280;68679;51.030;7.584;2023-06-14T12:30:01;98950.91;;;25.51;31.51
79250;BME280;68679;51.030;7.584;2023-06-14T12:32:26;98955.16;;;25.59;32.19
79250;BME280;68679;51.030;7.584;2023-06-14T12:34:52;98950.19;;;25.58;31.32
79250;BME280;68679;51.030;7.584;2023-06-14T12:37:17;98958.91;;;25.44;31.68
79250;BME280;68679;51.030;7.584;2023-06-14T12:39:42;98952.13;;;25.61;31.16
79250;BME280;68679;51.030;7.584;2023-06-14T12:42:08;98955.84;;;25.46;30.97
79250;BME280;68679;51.030;7.584;2023-06-14T12:44:33;98949.38;;;25.54;31.05
79250;BME280;68679;51.030;7.584;2023-06-14T12:47:00;98969.25;;;25.46;30.91
79250;BME280;68679;51.030;7.584;2023-06-14T12:49:26;98963.78;;;25.31;30.73
79250;BME280;68679;51.030;7.584;2023-06-14T12:51:51;98961.53;;;25.37;30.47
79250;BME280;68679;51.030;7.584;2023-06-14T12:54:16;98960.81;;;25.44;30.33
79250;BME280;68679;51.030;7.584;2023-06-14T12:56:42;98957.28;;;25.32;30.75
79250;BME280;68679;51.030;7.584;2023-06-14T12:59:09;98971.56;;;25.44;31.01
79250;BME280;68679;51.030;7.584;2023-06-14T13:01:38;98966.81;;;25.26;30.45
79250;BME280;68679;51.030;7.584;2023-06-14T13:04:04;98967.63;;;25.30;30.22
79250;BME280;68679;51.030;7.584;2023-06-14T13:06:29;98970.44;;;25.48;30.76
79250;BME280;68679;51.030;7.584;2023-06-14T13:08:56;98966.53;;;25.38;31.66